Time;durP1;ratioP1;P1;durP2;ratioP2;P2;SDS_P1;SDS_P2;PMS_P1;PMS_P2;Temp;Humidity;BMP_temperature;BMP_pressure;BME280_temperature;BME280_humidity;BME280_pressure;Samples;Min_cycle;Max_cycle;Signal;HPM_P1;HPM_P2
2024/02/19 00:01:42;;;;;;;6.90;3.40;;;12.00;99.90;;;;;;4990556;28;20179;-76
2024/02/19 00:04:08;;;;;;;8.70;3.70;;;12.00;99.90;;;;;;4990983;28;20229;-77
2024/02/19 00:06:34;;;;;;;8.53;4.10;;;12.00;99.90;;;;;;4989745;28;20334;-77
2024/02/19 00:09:01;;;;;;;9.82;4.43;;;12.00;99.90;;;;;;4982690;28;20567;-77
2024/02/19 00:11:27;;;;;;;5.97;3.50;;;11.90;99.90;;;;;;4991020;28;20542;-76
2024/02/19 00:13:52;;;;;;;7.60;4.30;;;12.00;99.90;;;;;;4990910;28;20186;-77
2024/02/19 00:16:19;;;;;;;10.07;4.30;;;11.90;99.90;;;;;;4990357;28;20606;-77
2024/02/19 00:18:45;;;;;;;10.32;5.03;;;12.00;99.90;;;;;;4993013;28;20186;-77
2024/02/19 00:21:11;;;;;;;10.18;4.03;;;11.90;99.90;;;;;;4994807;28;20210;-77
2024/02/19 00:23:37;;;;;;;6.30;3.87;;;12.00;99.90;;;;;;4993420;28;20586;-77
2024/02/19 00:26:03;;;;;;;7.27;3.73;;;11.90;99.90;;;;;;5009034;28;20633;-77
2024/02/19 00:28:29;;;;;;;9.52;3.38;;;11.90;99.90;;;;;;4994263;28;20733;-76
2024/02/19 00:30:55;;;;;;;7.68;3.65;;;11.90;99.90;;;;;;4994468;28;20286;-74
2024/02/19 00:33:23;;;;;;;4.77;3.27;;;11.90;99.90;;;;;;4994694;28;20258;-74
2024/02/19 00:35:49;;;;;;;7.32;3.45;;;11.80;99.90;;;;;;4993167;28;20617;-75
2024/02/19 00:38:15;;;;;;;7.63;3.70;;;11.80;99.90;;;;;;4992765;28;20171;-74
2024/02/19 00:40:41;;;;;;;5.80;3.27;;;11.80;99.90;;;;;;4994614;28;20190;-74
2024/02/19 00:43:06;;;;;;;7.87;3.60;;;11.80;99.90;;;;;;4994536;28;20179;-74
2024/02/19 00:45:32;;;;;;;6.63;3.27;;;11.80;99.90;;;;;;4994473;28;20641;-74
2024/02/19 00:47:58;;;;;;;8.30;3.60;;;11.70;99.90;;;;;;4994006;28;20230;-74
2024/02/19 00:50:23;;;;;;;7.60;3.87;;;11.70;99.90;;;;;;4994304;28;20191;-74
2024/02/19 00:52:49;;;;;;;7.10;3.00;;;11.70;99.90;;;;;;4993013;28;20279;-74
2024/02/19 00:55:15;;;;;;;6.30;3.17;;;11.70;99.90;;;;;;4993070;28;20183;-74
2024/02/19 00:57:40;;;;;;;9.43;3.97;;;11.70;99.90;;;;;;4993016;28;20637;-74
2024/02/19 01:00:06;;;;;;;9.40;3.40;;;11.70;99.90;;;;;;4994125;28;20171;-74
2024/02/19 01:02:32;;;;;;;6.25;2.85;;;11.70;99.90;;;;;;5001059;28;20270;-74
2024/02/19 01:04:58;;;;;;;4.57;2.13;;;11.60;99.90;;;;;;5008786;28;20301;-75
2024/02/19 01:07:25;;;;;;;5.85;2.80;;;11.60;99.90;;;;;;5008901;28;20302;-75
2024/02/19 01:09:50;;;;;;;8.80;3.47;;;11.60;99.90;;;;;;4991916;28;20183;-75
2024/02/19 01:12:16;;;;;;;8.40;2.30;;;11.60;99.90;;;;;;4990351;28;20175;-75
2024/02/19 01:14:42;;;;;;;4.97;2.20;;;11.60;99.90;;;;;;4993720;28;20660;-75
2024/02/19 01:17:08;;;;;;;11.20;2.92;;;11.60;99.90;;;;;;5008954;28;20206;-75
2024/02/19 01:19:35;;;;;;;5.60;1.42;;;11.60;99.90;;;;;;5000625;28;20234;-75
2024/02/19 01:22:01;;;;;;;5.88;1.75;;;11.60;99.90;;;;;;4992447;28;20205;-75
2024/02/19 01:24:26;;;;;;;7.93;1.70;;;11.60;99.90;;;;;;4993512;28;20202;-75
2024/02/19 01:26:52;;;;;;;6.50;1.73;;;11.60;99.90;;;;;;4993919;28;21462;-75
2024/02/19 01:29:18;;;;;;;7.50;2.07;;;11.60;99.90;;;;;;4991997;28;20780;-75
2024/02/19 01:31:45;;;;;;;6.13;2.17;;;11.60;99.90;;;;;;4991860;28;20622;-75
2024/02/19 01:34:11;;;;;;;4.90;2.20;;;11.60;99.90;;;;;;4991795;28;20187;-75
2024/02/19 01:36:37;;;;;;;8.15;2.30;;;11.60;99.90;;;;;;4993601;28;20199;-75
2024/02/19 01:39:03;;;;;;;10.65;2.28;;;11.60;99.90;;;;;;4992391;28;20202;-75
2024/02/19 01:41:29;;;;;;;5.43;2.00;;;11.60;99.90;;;;;;4992249;28;20179;-75
2024/02/19 01:43:54;;;;;;;8.33;2.60;;;11.60;99.90;;;;;;4991946;28;20637;-75
2024/02/19 01:46:21;;;;;;;9.00;2.03;;;11.60;99.90;;;;;;5008061;28;20676;-75
2024/02/19 01:48:47;;;;;;;12.32;2.65;;;11.60;99.90;;;;;;4992566;28;20182;-75
2024/02/19 01:51:15;;;;;;;7.07;1.97;;;11.60;99.90;;;;;;4992028;28;20182;-75
2024/02/19 01:53:42;;;;;;;5.35;1.98;;;11.60;99.90;;;;;;4991757;28;20633;-75
2024/02/19 01:56:08;;;;;;;7.15;2.08;;;11.60;99.90;;;;;;4983911;28;20739;-75
2024/02/19 01:58:36;;;;;;;5.67;1.50;;;11.60;99.90;;;;;;4991167;28;20179;-76
2024/02/19 02:01:04;;;;;;;8.77;2.40;;;11.60;99.90;;;;;;4991616;28;20625;-75
2024/02/19 02:03:32;;;;;;;5.30;2.20;;;11.60;99.90;;;;;;4999903;28;20179;-76
2024/02/19 02:05:59;;;;;;;8.80;2.30;;;11.60;99.90;;;;;;5007760;28;20194;-75
2024/02/19 02:08:25;;;;;;;9.52;2.45;;;11.60;99.90;;;;;;4991305;28;20578;-75
2024/02/19 02:10:50;;;;;;;6.00;2.20;;;11.60;99.90;;;;;;5009006;28;20190;-74
2024/02/19 02:13:18;;;;;;;7.13;2.07;;;11.60;99.90;;;;;;4992830;28;20681;-76
2024/02/19 02:15:44;;;;;;;8.82;2.72;;;11.60;99.90;;;;;;4991352;28;20213;-75
2024/02/19 02:18:12;;;;;;;7.97;1.80;;;11.60;99.90;;;;;;4991974;28;20550;-75
2024/02/19 02:20:39;;;;;;;6.50;1.90;;;11.60;99.90;;;;;;4991458;28;20178;-75
2024/02/19 02:23:05;;;;;;;5.13;2.10;;;11.60;99.90;;;;;;4992336;28;20721;-75
2024/02/19 02:25:33;;;;;;;4.50;1.90;;;11.60;99.90;;;;;;4992642;28;20238;-76
2024/02/19 02:27:59;;;;;;;10.65;2.20;;;11.60;99.90;;;;;;4993518;28;20581;-75
2024/02/19 02:30:25;;;;;;;7.78;1.80;;;11.60;99.90;;;;;;4991519;28;20614;-75
2024/02/19 02:32:55;;;;;;;8.17;1.77;;;11.60;99.90;;;;;;5005261;28;20180;-75
2024/02/19 02:35:25;;;;;;;6.97;1.60;;;11.60;99.90;;;;;;4991203;28;20697;-75
2024/02/19 02:37:51;;;;;;;10.13;1.95;;;11.60;99.90;;;;;;4991576;28;20215;-75
2024/02/19 02:40:16;;;;;;;6.33;1.20;;;11.50;99.90;;;;;;4990990;28;20210;-75
2024/02/19 02:42:43;;;;;;;4.57;1.00;;;11.50;99.90;;;;;;4992017;28;20213;-75
2024/02/19 02:45:09;;;;;;;4.47;1.63;;;11.50;99.90;;;;;;4990509;28;20222;-75
2024/02/19 02:47:35;;;;;;;4.90;1.33;;;11.50;99.90;;;;;;5006631;28;20179;-75
2024/02/19 02:50:00;;;;;;;6.80;1.40;;;11.50;99.90;;;;;;4973321;28;20947;-75
2024/02/19 02:52:26;;;;;;;4.13;1.37;;;11.50;99.90;;;;;;4990843;28;20179;-75
2024/02/19 02:54:52;;;;;;;4.47;0.93;;;11.50;99.90;;;;;;4974582;28;20179;-75
2024/02/19 02:57:18;;;;;;;6.30;1.10;;;11.50;99.90;;;;;;4991853;28;21101;-74
2024/02/19 02:59:43;;;;;;;5.47;1.10;;;11.60;99.90;;;;;;4990253;28;20210;-75
2024/02/19 03:02:09;;;;;;;7.00;1.20;;;11.60;99.90;;;;;;4991702;28;20565;-74
2024/02/19 03:04:35;;;;;;;5.50;1.20;;;11.60;99.90;;;;;;4974409;28;20199;-74
2024/02/19 03:07:00;;;;;;;4.17;1.30;;;11.60;99.90;;;;;;4991583;28;20606;-74
2024/02/19 03:09:26;;;;;;;8.00;2.43;;;11.60;99.90;;;;;;4957786;28;20238;-75
2024/02/19 03:11:52;;;;;;;6.90;1.50;;;11.60;99.90;;;;;;4987967;28;20180;-75
2024/02/19 03:14:17;;;;;;;9.20;1.60;;;11.60;99.90;;;;;;4990563;28;20175;-75
2024/02/19 03:16:43;;;;;;;5.53;2.10;;;11.60;99.90;;;;;;4990102;28;20198;-75
2024/02/19 03:19:09;;;;;;;9.87;1.83;;;11.60;99.90;;;;;;4990787;28;20265;-75
2024/02/19 03:21:40;;;;;;;6.43;1.50;;;11.60;99.90;;;;;;4986619;28;20180;-75
2024/02/19 03:24:07;;;;;;;7.32;2.63;;;11.60;99.90;;;;;;5005736;28;20646;-75
2024/02/19 03:26:33;;;;;;;5.00;1.77;;;11.70;99.90;;;;;;4991281;28;20294;-75
2024/02/19 03:28:59;;;;;;;9.43;1.50;;;11.60;99.90;;;;;;4989564;28;20333;-75
2024/02/19 03:31:24;;;;;;;10.20;1.77;;;11.60;99.90;;;;;;4991388;28;20171;-75
2024/02/19 03:33:50;;;;;;;8.33;1.63;;;11.60;99.90;;;;;;4998162;28;20706;-75
2024/02/19 03:36:16;;;;;;;16.97;2.50;;;11.60;99.90;;;;;;4989740;28;20261;-75
2024/02/19 03:38:42;;;;;;;6.40;1.40;;;11.60;99.90;;;;;;4990703;28;20183;-75
2024/02/19 03:41:08;;;;;;;6.20;1.57;;;11.50;99.90;;;;;;4990978;28;20189;-75
2024/02/19 03:43:34;;;;;;;7.27;1.43;;;11.60;99.90;;;;;;4991307;28;20179;-75
2024/02/19 03:46:05;;;;;;;5.22;1.42;;;11.60;99.90;;;;;;5004476;28;20203;-75
2024/02/19 03:48:33;;;;;;;8.30;1.85;;;11.60;99.90;;;;;;4990605;28;20175;-75
2024/02/19 03:50:59;;;;;;;5.10;1.10;;;11.60;99.90;;;;;;4989452;28;20274;-74
2024/02/19 03:53:25;;;;;;;4.40;1.20;;;11.60;99.90;;;;;;4991269;28;20254;-74
2024/02/19 03:55:50;;;;;;;4.07;1.30;;;11.50;99.90;;;;;;4990998;28;20214;-75
2024/02/19 03:58:16;;;;;;;10.43;1.00;;;11.60;99.90;;;;;;4989454;28;20194;-74
2024/02/19 04:00:42;;;;;;;4.70;1.13;;;11.60;99.90;;;;;;4991047;28;20262;-75
2024/02/19 04:03:07;;;;;;;3.20;1.00;;;11.60;99.90;;;;;;4991173;28;20615;-75
2024/02/19 04:05:33;;;;;;;5.53;1.20;;;11.60;99.90;;;;;;4990863;28;20207;-75
2024/02/19 04:07:59;;;;;;;4.13;1.30;;;11.60;99.90;;;;;;4989274;28;20506;-75
2024/02/19 04:10:24;;;;;;;4.23;0.90;;;11.60;99.90;;;;;;4990965;28;20179;-75
2024/02/19 04:12:50;;;;;;;4.27;1.07;;;11.60;99.90;;;;;;4973469;28;20175;-75
2024/02/19 04:15:16;;;;;;;6.27;1.37;;;11.70;99.90;;;;;;5006090;28;20586;-75
2024/02/19 04:17:41;;;;;;;6.23;1.00;;;11.70;99.90;;;;;;4989259;28;20182;-75
2024/02/19 04:20:08;;;;;;;8.20;1.33;;;11.70;99.90;;;;;;4989460;28;20215;-75
2024/02/19 04:22:34;;;;;;;9.52;1.65;;;11.70;99.90;;;;;;5006044;28;20329;-75
2024/02/19 04:25:00;;;;;;;4.40;2.27;;;11.70;99.90;;;;;;4989459;28;20741;-75
2024/02/19 04:27:25;;;;;;;10.88;2.53;;;11.70;99.90;;;;;;4989511;28;20970;-75
2024/02/19 04:29:51;;;;;;;8.10;1.80;;;11.70;99.90;;;;;;4989094;28;20181;-75
2024/02/19 04:32:17;;;;;;;7.60;2.30;;;11.70;99.90;;;;;;4990702;28;20205;-75
2024/02/19 04:34:42;;;;;;;6.03;1.80;;;11.70;99.90;;;;;;5002968;28;20202;-75
2024/02/19 04:37:08;;;;;;;5.10;1.83;;;11.70;99.90;;;;;;5006135;28;20234;-75
2024/02/19 04:39:34;;;;;;;9.20;3.10;;;11.80;99.90;;;;;;4990673;28;20606;-75
2024/02/19 04:42:02;;;;;;;6.03;2.17;;;11.70;99.90;;;;;;4973528;28;20190;-75
2024/02/19 04:44:27;;;;;;;9.10;1.70;;;11.70;99.90;;;;;;4973591;28;20195;-75
2024/02/19 04:46:53;;;;;;;6.40;1.67;;;11.70;99.90;;;;;;4989490;28;20619;-75
2024/02/19 04:49:19;;;;;;;4.57;1.67;;;11.70;99.90;;;;;;5005133;28;20545;-75
2024/02/19 04:51:44;;;;;;;7.70;2.20;;;11.80;99.90;;;;;;4990821;28;20178;-75
2024/02/19 04:54:10;;;;;;;5.80;1.90;;;11.70;99.90;;;;;;4973633;28;20598;-75
2024/02/19 04:56:36;;;;;;;10.40;2.17;;;11.80;99.90;;;;;;4990666;28;20265;-75
2024/02/19 04:59:02;;;;;;;7.50;1.50;;;11.80;99.90;;;;;;4989297;28;20583;-75
2024/02/19 05:01:31;;;;;;;7.07;2.03;;;11.90;99.90;;;;;;4989480;28;20183;-75
2024/02/19 05:04:00;;;;;;;7.15;1.85;;;12.00;99.90;;;;;;4989202;28;20215;-75
2024/02/19 05:06:28;;;;;;;7.63;2.17;;;12.00;99.90;;;;;;4994458;28;20248;-74
2024/02/19 05:08:54;;;;;;;5.95;1.85;;;12.10;99.90;;;;;;4993498;28;20281;-75
2024/02/19 05:11:21;;;;;;;7.93;2.33;;;12.20;99.90;;;;;;4994166;28;20214;-75
2024/02/19 05:13:46;;;;;;;8.60;1.77;;;12.20;99.90;;;;;;4993968;28;20582;-75
2024/02/19 05:16:12;;;;;;;7.73;1.87;;;12.30;99.90;;;;;;4991806;28;20190;-76
2024/02/19 05:18:38;;;;;;;7.80;1.90;;;12.30;99.90;;;;;;4993074;28;20556;-76
2024/02/19 05:21:04;;;;;;;9.73;2.50;;;12.30;99.90;;;;;;4992773;28;20178;-75
2024/02/19 05:23:31;;;;;;;6.60;1.63;;;12.30;99.90;;;;;;4994053;28;20194;-76
2024/02/19 05:25:57;;;;;;;6.37;1.90;;;12.30;99.90;;;;;;4975606;28;20792;-76
2024/02/19 05:28:23;;;;;;;4.80;1.88;;;12.30;99.90;;;;;;4991327;28;20585;-75
2024/02/19 05:30:49;;;;;;;6.47;1.77;;;12.40;99.90;;;;;;4992379;28;20183;-76
2024/02/19 05:33:18;;;;;;;5.70;1.80;;;12.40;99.90;;;;;;4993593;28;20272;-75
2024/02/19 05:35:46;;;;;;;5.00;1.63;;;12.30;99.90;;;;;;4993481;28;20190;-75
2024/02/19 05:38:13;;;;;;;7.10;1.80;;;12.40;99.90;;;;;;4993176;28;20629;-75
2024/02/19 05:40:39;;;;;;;6.57;1.80;;;12.40;99.90;;;;;;5000480;28;20602;-75
2024/02/19 05:43:05;;;;;;;10.13;2.85;;;12.40;99.90;;;;;;4993603;28;20684;-75
2024/02/19 05:45:31;;;;;;;9.00;2.20;;;12.30;99.90;;;;;;4993670;28;20203;-75
2024/02/19 05:47:57;;;;;;;6.63;2.43;;;12.30;99.90;;;;;;4991824;28;20217;-75
2024/02/19 05:50:23;;;;;;;9.20;2.37;;;12.30;99.90;;;;;;4993846;28;21159;-74
2024/02/19 05:52:49;;;;;;;10.60;2.15;;;12.30;99.90;;;;;;4993617;28;20581;-74
2024/02/19 05:55:15;;;;;;;7.60;2.67;;;12.20;99.90;;;;;;4975641;28;20633;-74
2024/02/19 05:57:40;;;;;;;7.17;2.20;;;12.20;99.90;;;;;;4992684;28;20700;-74
2024/02/19 06:00:11;;;;;;;9.13;2.37;;;12.20;99.90;;;;;;4993038;28;20677;-74
2024/02/19 06:02:37;;;;;;;8.93;2.50;;;12.20;99.90;;;;;;4992005;28;20183;-74
2024/02/19 06:05:03;;;;;;;6.63;1.90;;;12.20;99.90;;;;;;4991861;28;20257;-74
2024/02/19 06:07:29;;;;;;;7.93;2.30;;;12.20;99.90;;;;;;4999665;28;20273;-74
2024/02/19 06:09:54;;;;;;;8.23;2.50;;;12.10;99.90;;;;;;4992972;28;21135;-74
2024/02/19 06:12:21;;;;;;;7.77;1.60;;;12.10;99.90;;;;;;4991069;28;20777;-74
2024/02/19 06:14:46;;;;;;;5.47;2.22;;;12.10;99.90;;;;;;4991411;28;20293;-74
2024/02/19 06:17:12;;;;;;;6.30;2.40;;;12.10;99.90;;;;;;5008032;28;20203;-74
2024/02/19 06:19:38;;;;;;;7.93;1.70;;;12.00;99.90;;;;;;4992272;28;20183;-74
2024/02/19 06:22:04;;;;;;;8.20;2.07;;;12.00;99.90;;;;;;4992816;28;20202;-73
2024/02/19 06:24:29;;;;;;;7.27;2.13;;;12.00;99.90;;;;;;4992900;28;20704;-74
2024/02/19 06:26:55;;;;;;;7.90;1.70;;;12.10;99.90;;;;;;4992583;28;20641;-74
2024/02/19 06:29:21;;;;;;;8.37;1.80;;;12.10;99.90;;;;;;4991888;28;20724;-74
2024/02/19 06:31:49;;;;;;;6.87;1.80;;;12.10;99.90;;;;;;4991504;28;20178;-74
2024/02/19 06:34:15;;;;;;;8.20;1.58;;;12.10;99.90;;;;;;5007642;28;20185;-74
2024/02/19 06:36:41;;;;;;;7.67;2.43;;;12.00;99.90;;;;;;4991320;28;20199;-74
2024/02/19 06:39:07;;;;;;;8.83;2.53;;;12.00;99.90;;;;;;4991757;28;21119;-75
2024/02/19 06:41:33;;;;;;;4.90;1.80;;;12.00;99.90;;;;;;4992451;28;20211;-74
2024/02/19 06:43:58;;;;;;;6.60;2.17;;;12.00;99.90;;;;;;4991013;28;20692;-74
2024/02/19 06:46:24;;;;;;;8.23;2.10;;;12.00;99.90;;;;;;4992381;28;20198;-75
2024/02/19 06:48:50;;;;;;;5.80;1.40;;;12.10;99.90;;;;;;4991719;28;20167;-74
2024/02/19 06:54:58;;;;;;;5.10;1.60;;;12.00;99.90;;;;;;4989789;28;20183;-74
2024/02/19 06:57:23;;;;;;;8.00;2.70;;;12.10;99.90;;;;;;4965283;28;20964;-75
2024/02/19 06:59:49;;;;;;;8.60;2.47;;;12.10;99.90;;;;;;4986405;28;20187;-74
2024/02/19 07:02:15;;;;;;;6.30;1.50;;;12.10;99.90;;;;;;4990663;28;20186;-74
2024/02/19 07:04:40;;;;;;;3.90;1.87;;;12.10;99.90;;;;;;5007035;28;20214;-74
2024/02/19 07:07:08;;;;;;;9.47;2.33;;;12.10;99.90;;;;;;4974501;28;20218;-74
2024/02/19 07:09:40;;;;;;;7.95;1.65;;;12.10;99.90;;;;;;5006329;28;20241;-76
2024/02/19 07:12:06;;;;;;;12.85;2.22;;;12.10;99.90;;;;;;4991878;28;20183;-76
2024/02/19 07:14:31;;;;;;;5.55;1.60;;;12.20;99.90;;;;;;4989694;28;20179;-75
2024/02/19 07:16:57;;;;;;;7.30;1.63;;;12.20;99.90;;;;;;4991380;28;20297;-75
2024/02/19 07:19:23;;;;;;;11.57;1.70;;;12.20;99.90;;;;;;5006111;28;20210;-75
2024/02/19 07:21:48;;;;;;;5.50;2.37;;;12.20;99.90;;;;;;4990642;28;20178;-75
2024/02/19 07:24:14;;;;;;;8.23;1.73;;;12.20;99.90;;;;;;4991584;28;20238;-75
2024/02/19 07:26:40;;;;;;;8.30;2.20;;;12.30;99.90;;;;;;4989536;28;20209;-76
2024/02/19 07:29:05;;;;;;;7.80;1.83;;;12.30;99.90;;;;;;4990181;28;20249;-76
2024/02/19 07:31:31;;;;;;;4.63;1.70;;;12.30;99.90;;;;;;5006610;28;20181;-76
2024/02/19 07:33:57;;;;;;;5.97;1.50;;;12.30;99.90;;;;;;4990315;28;20262;-76
2024/02/19 07:36:23;;;;;;;3.58;1.02;;;12.30;99.90;;;;;;4991027;28;20210;-76
2024/02/19 07:38:49;;;;;;;6.80;2.00;;;12.30;99.90;;;;;;4990814;28;20183;-76
2024/02/19 07:41:16;;;;;;;7.20;1.63;;;12.30;99.90;;;;;;4989903;28;21159;-76
2024/02/19 07:43:45;;;;;;;6.90;1.85;;;12.30;99.90;;;;;;4973550;28;20218;-76
2024/02/19 07:46:12;;;;;;;4.60;1.80;;;12.40;99.90;;;;;;4973603;28;20218;-76
2024/02/19 07:48:38;;;;;;;5.40;1.67;;;12.40;99.90;;;;;;4974808;28;20594;-76
2024/02/19 07:51:03;;;;;;;6.37;1.70;;;12.40;99.90;;;;;;4989957;28;20618;-76
2024/02/19 07:53:29;;;;;;;5.80;1.30;;;12.40;99.90;;;;;;4989931;28;20637;-76
2024/02/19 07:56:05;;;;;;;5.90;1.80;;;12.40;99.90;;;;;;4973606;28;20630;-76
2024/02/19 07:58:32;;;;;;;4.03;1.20;;;12.50;99.90;;;;;;4989048;28;20270;-76
2024/02/19 08:00:57;;;;;;;4.33;1.53;;;12.50;99.90;;;;;;4989908;28;20270;-75
2024/02/19 08:03:23;;;;;;;6.23;2.20;;;12.50;99.90;;;;;;4990441;28;20689;-75
2024/02/19 08:05:49;;;;;;;5.93;1.30;;;12.60;99.90;;;;;;4990921;28;20249;-76
2024/02/19 08:08:15;;;;;;;5.37;1.50;;;12.60;99.90;;;;;;4990503;28;20174;-76
2024/02/19 08:10:41;;;;;;;6.43;2.03;;;12.60;99.90;;;;;;4989670;28;20330;-76
2024/02/19 08:13:10;;;;;;;3.93;1.17;;;12.60;99.90;;;;;;4990752;28;20594;-76
2024/02/19 08:15:41;;;;;;;8.50;1.80;;;12.60;99.90;;;;;;5006145;28;20286;-76
2024/02/19 08:18:07;;;;;;;6.47;1.47;;;12.70;99.90;;;;;;4989933;28;20601;-76
2024/02/19 08:20:33;;;;;;;6.90;1.80;;;12.70;99.90;;;;;;4990677;28;20600;-76
2024/02/19 08:22:59;;;;;;;3.97;1.50;;;12.80;99.90;;;;;;4990891;28;20207;-76
2024/02/19 08:25:25;;;;;;;10.97;1.73;;;12.80;99.90;;;;;;4990344;28;20672;-76
2024/02/19 08:27:51;;;;;;;8.23;1.47;;;12.80;99.90;;;;;;4990035;28;20191;-77
2024/02/19 08:30:16;;;;;;;6.80;1.77;;;12.90;99.90;;;;;;4990161;28;20186;-75
2024/02/19 08:32:42;;;;;;;13.00;1.87;;;13.00;99.90;;;;;;4990637;28;21152;-75
2024/02/19 08:35:08;;;;;;;7.00;1.47;;;13.00;99.90;;;;;;4990945;28;20175;-76
2024/02/19 08:37:34;;;;;;;9.13;1.93;;;13.10;99.90;;;;;;4991445;28;20302;-76
2024/02/19 08:39:59;;;;;;;7.93;1.53;;;13.20;99.90;;;;;;4994853;28;20582;-76
2024/02/19 08:42:25;;;;;;;10.37;1.83;;;13.20;99.90;;;;;;4993356;28;20661;-77
2024/02/19 08:44:51;;;;;;;7.07;2.20;;;13.40;99.90;;;;;;4994550;28;20538;-76
2024/02/19 08:47:18;;;;;;;5.83;1.87;;;13.40;99.90;;;;;;4976815;28;20227;-75
2024/02/19 08:49:43;;;;;;;4.80;2.00;;;13.50;99.90;;;;;;4992857;28;20265;-75
2024/02/19 08:52:09;;;;;;;9.50;3.30;;;13.60;99.90;;;;;;4994704;28;20644;-76
2024/02/19 08:54:36;;;;;;;10.10;2.53;;;13.70;99.90;;;;;;4993393;28;20652;-76
2024/02/19 08:57:01;;;;;;;11.60;2.97;;;13.70;99.90;;;;;;4977329;28;20221;-76
2024/02/19 08:59:27;;;;;;;4.03;2.13;;;13.80;99.90;;;;;;4995074;28;20582;-76
2024/02/19 09:01:53;;;;;;;9.47;2.00;;;13.90;99.90;;;;;;5009581;28;20778;-76
2024/02/19 09:04:22;;;;;;;6.27;2.00;;;14.00;99.90;;;;;;4993011;28;20400;-76
2024/02/19 09:06:48;;;;;;;11.27;2.53;;;14.00;99.90;;;;;;5006003;28;20681;-75
2024/02/19 09:09:13;;;;;;;5.30;2.07;;;14.10;99.90;;;;;;4990811;28;20982;-75
2024/02/19 09:11:39;;;;;;;6.37;2.30;;;14.10;99.90;;;;;;4993208;28;20645;-74
2024/02/19 09:14:05;;;;;;;5.63;2.30;;;14.20;99.90;;;;;;4993056;28;20744;-74
2024/02/19 09:16:34;;;;;;;9.33;2.50;;;14.20;99.90;;;;;;4992679;28;20207;-75
2024/02/19 09:19:05;;;;;;;7.00;2.90;;;14.30;99.90;;;;;;4992032;28;20677;-76
2024/02/19 09:21:31;;;;;;;9.37;4.77;;;14.30;99.90;;;;;;4993891;28;20622;-76
2024/02/19 09:23:56;;;;;;;9.07;2.97;;;14.40;99.90;;;;;;4993883;28;20621;-76
2024/02/19 09:26:22;;;;;;;8.83;2.80;;;14.40;99.90;;;;;;4992483;28;20645;-75
2024/02/19 09:28:48;;;;;;;9.10;3.03;;;14.40;99.90;;;;;;4991919;28;20263;-76
2024/02/19 09:31:14;;;;;;;7.50;3.03;;;14.40;99.90;;;;;;4992424;28;20178;-76
2024/02/19 09:33:44;;;;;;;7.80;3.20;;;14.40;99.90;;;;;;4992474;28;20578;-76
2024/02/19 09:36:18;;;;;;;6.30;2.50;;;14.40;99.90;;;;;;4993608;28;20622;-75
2024/02/19 09:38:45;;;;;;;8.43;3.83;;;14.50;99.90;;;;;;4991417;28;20601;-75
2024/02/19 09:41:11;;;;;;;7.77;3.50;;;14.50;99.90;;;;;;4992257;28;20598;-75
2024/02/19 09:43:36;;;;;;;12.17;3.97;;;14.60;99.90;;;;;;4992486;28;20601;-75
2024/02/19 09:46:03;;;;;;;8.13;3.30;;;14.60;99.90;;;;;;4992969;28;20627;-75
2024/02/19 09:48:32;;;;;;;12.30;4.00;;;14.70;99.90;;;;;;4990418;28;20202;-74
2024/02/19 09:51:00;;;;;;;9.00;4.10;;;14.80;99.90;;;;;;5007851;28;20989;-75
2024/02/19 09:53:29;;;;;;;9.70;4.40;;;14.90;99.90;;;;;;4991063;28;20578;-75
2024/02/19 09:55:56;;;;;;;10.70;4.13;;;14.90;99.90;;;;;;4992835;28;20634;-75
2024/02/19 09:58:22;;;;;;;13.00;4.30;;;15.10;99.90;;;;;;4992250;28;20578;-75
2024/02/19 10:00:48;;;;;;;15.90;4.67;;;15.20;99.90;;;;;;4990630;28;20597;-75
2024/02/19 10:03:19;;;;;;;9.17;3.70;;;15.30;99.90;;;;;;4990935;28;20605;-75
2024/02/19 10:05:45;;;;;;;10.77;4.67;;;15.40;99.90;;;;;;4992884;28;20696;-76
2024/02/19 10:08:14;;;;;;;13.00;4.90;;;15.60;99.90;;;;;;4991010;28;21604;-76
2024/02/19 10:10:43;;;;;;;5.63;4.37;;;15.80;99.90;;;;;;4990429;28;20183;-75
2024/02/19 10:13:11;;;;;;;10.73;5.30;;;15.90;99.90;;;;;;4991480;28;20589;-76
2024/02/19 10:15:37;;;;;;;9.50;5.10;;;16.10;99.90;;;;;;4984471;28;20987;-76
2024/02/19 10:18:17;;;;;;;11.10;4.00;;;16.20;99.90;;;;;;4992332;28;20938;-76
2024/02/19 10:20:53;;;;;;;7.67;4.10;;;16.30;99.90;;;;;;4975078;28;21185;-76
2024/02/19 10:23:20;;;;;;;9.40;4.23;;;16.50;99.90;;;;;;4992148;28;20577;-76
2024/02/19 10:25:46;;;;;;;7.80;4.37;;;16.70;99.90;;;;;;4991098;28;20650;-76
2024/02/19 10:28:12;;;;;;;7.33;3.97;;;16.90;99.90;;;;;;4990771;28;20590;-76
2024/02/19 10:30:38;;;;;;;10.43;3.90;;;17.00;99.90;;;;;;4966978;28;21127;-76
2024/02/19 10:33:04;;;;;;;9.53;5.00;;;17.00;99.90;;;;;;4992563;28;20701;-76
2024/02/19 10:35:32;;;;;;;8.70;3.90;;;17.00;99.90;;;;;;4992136;28;20586;-75
2024/02/19 10:37:59;;;;;;;6.90;3.10;;;16.90;99.90;;;;;;4990737;28;21235;-75
2024/02/19 10:40:26;;;;;;;10.43;3.90;;;16.90;99.90;;;;;;4990729;28;20688;-76
2024/02/19 10:42:52;;;;;;;6.70;3.80;;;16.90;99.90;;;;;;4992475;28;20674;-76
2024/02/19 10:45:22;;;;;;;8.03;3.20;;;16.80;99.90;;;;;;4974579;28;20650;-76
2024/02/19 10:47:49;;;;;;;7.40;3.87;;;16.80;99.90;;;;;;5006781;28;21276;-76
2024/02/19 10:50:18;;;;;;;9.90;4.13;;;16.70;99.90;;;;;;4990485;28;20593;-76
2024/02/19 10:52:44;;;;;;;8.57;4.30;;;16.60;99.90;;;;;;4990956;28;20606;-76
2024/02/19 10:55:17;;;;;;;8.00;4.13;;;16.50;99.90;;;;;;4992212;28;20639;-76
2024/02/19 10:57:54;;;;;;;12.17;5.00;;;16.40;99.90;;;;;;4984073;28;20586;-76
2024/02/19 11:00:29;;;;;;;7.93;4.77;;;16.30;99.90;;;;;;4989917;28;20600;-76
2024/02/19 11:03:09;;;;;;;8.10;3.80;;;16.20;99.90;;;;;;4990558;28;20581;-77
2024/02/19 11:05:41;;;;;;;7.60;3.97;;;16.00;99.90;;;;;;4990197;28;20711;-76
2024/02/19 11:08:21;;;;;;;8.30;3.67;;;16.00;99.90;;;;;;4991369;28;20595;-75
2024/02/19 11:10:50;;;;;;;7.70;4.23;;;15.90;99.90;;;;;;5007182;28;20617;-74
2024/02/19 11:13:21;;;;;;;9.03;4.20;;;15.90;99.90;;;;;;4998921;28;21259;-74
2024/02/19 11:15:48;;;;;;;12.63;7.30;;;15.90;99.90;;;;;;4990972;28;20621;-74
2024/02/19 11:18:15;;;;;;;13.20;8.20;;;15.90;99.90;;;;;;4992377;28;20613;-74
2024/02/19 11:20:42;;;;;;;9.03;6.80;;;15.90;99.90;;;;;;4992738;28;20581;-74
2024/02/19 11:23:07;;;;;;;7.57;5.00;;;15.90;99.90;;;;;;4994650;28;20594;-74
2024/02/19 11:25:33;;;;;;;11.23;5.80;;;16.00;99.90;;;;;;5009522;28;20708;-74
2024/02/19 11:28:00;;;;;;;9.93;6.20;;;16.10;99.90;;;;;;4994903;28;20257;-73
2024/02/19 11:30:26;;;;;;;10.20;6.20;;;16.30;99.90;;;;;;4992111;28;20617;-74
2024/02/19 11:33:00;;;;;;;11.80;7.37;;;16.50;99.90;;;;;;4994873;28;21167;-74
2024/02/19 11:35:26;;;;;;;9.93;5.87;;;16.60;99.90;;;;;;5011071;28;21222;-74
2024/02/19 11:37:52;;;;;;;15.40;6.17;;;16.70;99.90;;;;;;5010614;28;20585;-74
2024/02/19 11:40:18;;;;;;;10.10;4.10;;;16.90;99.90;;;;;;4987527;28;20266;-74
2024/02/19 11:42:44;;;;;;;10.83;5.20;;;17.00;99.90;;;;;;4996474;28;20181;-74
2024/02/19 11:45:10;;;;;;;10.60;4.53;;;17.00;99.90;;;;;;4986391;28;21125;-74
2024/02/19 11:47:37;;;;;;;9.10;5.10;;;17.00;99.90;;;;;;4996931;28;20618;-74
2024/02/19 11:50:07;;;;;;;11.63;4.60;;;17.00;99.90;;;;;;4996798;28;20589;-74
2024/02/19 11:52:33;;;;;;;10.70;5.20;;;17.00;99.90;;;;;;4995406;28;20588;-74
2024/02/19 11:54:59;;;;;;;9.60;4.80;;;17.00;99.90;;;;;;4993679;28;20582;-74
2024/02/19 11:57:25;;;;;;;10.63;5.53;;;16.90;99.90;;;;;;5007830;28;20208;-75
2024/02/19 11:59:51;;;;;;;7.03;4.67;;;16.80;99.90;;;;;;5003237;28;20637;-74
2024/02/19 12:02:19;;;;;;;7.33;6.10;;;16.70;99.90;;;;;;4992456;28;20605;-74
2024/02/19 12:04:50;;;;;;;8.20;4.90;;;16.60;99.90;;;;;;5000122;28;20713;-75
2024/02/19 12:07:16;;;;;;;7.77;4.30;;;16.50;99.90;;;;;;4992138;28;20610;-74
2024/02/19 12:09:43;;;;;;;8.23;4.20;;;16.40;99.90;;;;;;4994758;28;20589;-74
2024/02/19 12:12:10;;;;;;;8.87;4.97;;;16.40;99.90;;;;;;4993835;28;20190;-75
2024/02/19 12:14:36;;;;;;;11.53;5.40;;;16.30;99.90;;;;;;4997266;28;20594;-74
2024/02/19 12:17:05;;;;;;;7.90;4.73;;;16.20;99.90;;;;;;5000270;28;20717;-74
2024/02/19 12:19:31;;;;;;;8.50;5.30;;;16.10;99.90;;;;;;5011896;28;20591;-74
2024/02/19 12:21:57;;;;;;;10.00;5.40;;;16.00;99.90;;;;;;4979215;28;20579;-74
2024/02/19 12:24:23;;;;;;;10.83;5.50;;;15.90;99.90;;;;;;5015395;28;20208;-75
2024/02/19 12:26:49;;;;;;;10.57;5.13;;;15.80;99.90;;;;;;5014906;28;20206;-74
2024/02/19 12:29:15;;;;;;;8.50;4.83;;;15.70;99.90;;;;;;5017082;28;20634;-73
2024/02/19 12:31:40;;;;;;;8.13;4.20;;;15.60;99.90;;;;;;5009105;28;20178;-73
2024/02/19 12:34:07;;;;;;;8.93;4.53;;;15.50;99.90;;;;;;5000635;28;20215;-74
2024/02/19 12:36:33;;;;;;;10.07;4.57;;;15.40;99.90;;;;;;4998659;28;20222;-74
2024/02/19 12:39:01;;;;;;;9.40;4.80;;;15.40;99.90;;;;;;4995274;28;20598;-74
2024/02/19 12:41:26;;;;;;;10.90;4.27;;;15.40;99.90;;;;;;5007318;28;20170;-75
2024/02/19 12:43:52;;;;;;;13.10;3.87;;;15.50;99.90;;;;;;5005531;28;21023;-74
2024/02/19 12:46:18;;;;;;;8.03;4.00;;;15.50;99.90;;;;;;5005773;28;20200;-75